createdAt,value
2022-11-06T00:00:31.265Z,6.60
2022-11-06T00:03:00.069Z,6.50
2022-11-06T00:05:45.460Z,6.40
2022-11-06T00:08:13.804Z,6.30
2022-11-06T00:10:42.401Z,6.20
2022-11-06T00:13:11.765Z,6.20
2022-11-06T00:15:39.985Z,6.10
2022-11-06T00:18:07.819Z,6.10
2022-11-06T00:20:35.759Z,6.20
2022-11-06T00:23:03.962Z,6.20
2022-11-06T00:25:31.828Z,6.30
2022-11-06T00:27:59.939Z,6.20
2022-11-06T00:30:29.500Z,6.20
2022-11-06T00:32:57.564Z,6.10
2022-11-06T00:35:25.690Z,6.00
2022-11-06T00:37:54.412Z,6.00
2022-11-06T00:40:22.340Z,5.90
2022-11-06T00:42:55.160Z,5.90
2022-11-06T00:45:23.179Z,5.80
2022-11-06T00:47:52.681Z,6.00
2022-11-06T00:50:20.941Z,6.00
2022-11-06T00:52:48.829Z,5.90
2022-11-06T00:55:16.779Z,5.90
2022-11-06T00:57:44.622Z,6.00
2022-11-06T01:00:13.884Z,6.00
2022-11-06T01:02:41.816Z,6.10
2022-11-06T01:05:11.190Z,6.10
2022-11-06T01:07:40.309Z,6.10
2022-11-06T01:10:09.865Z,6.00
2022-11-06T01:12:37.735Z,6.00
2022-11-06T01:15:06.578Z,5.90
2022-11-06T01:17:36.077Z,5.90
2022-11-06T01:20:04.762Z,5.90
2022-11-06T01:22:34.017Z,5.90
2022-11-06T01:25:02.992Z,5.90
2022-11-06T01:27:30.885Z,5.80
2022-11-06T01:29:58.762Z,5.80
2022-11-06T01:32:26.663Z,5.80
2022-11-06T01:34:54.673Z,5.70
2022-11-06T01:37:22.824Z,5.70
2022-11-06T01:39:52.047Z,5.70
2022-11-06T01:42:21.933Z,5.70
2022-11-06T01:45:26.727Z,5.70
2022-11-06T01:47:54.670Z,5.60
2022-11-06T01:50:22.813Z,5.50
2022-11-06T01:52:52.252Z,5.50
2022-11-06T01:55:26.532Z,5.50
2022-11-06T01:57:56.204Z,5.50
2022-11-06T02:00:24.360Z,5.40
2022-11-06T02:02:52.611Z,5.40
2022-11-06T02:05:21.043Z,5.40
2022-11-06T02:07:49.751Z,5.40
2022-11-06T02:10:17.947Z,5.40
2022-11-06T02:12:59.269Z,5.40
2022-11-06T02:15:38.336Z,5.40
2022-11-06T02:18:45.903Z,5.30
2022-11-06T02:21:29.440Z,5.30
2022-11-06T02:24:18.086Z,5.40
2022-11-06T02:26:57.637Z,5.30
2022-11-06T02:29:34.443Z,5.30
2022-11-06T02:32:07.975Z,5.30
2022-11-06T02:34:37.326Z,5.30
2022-11-06T02:37:10.996Z,5.30
2022-11-06T02:39:41.135Z,5.20
2022-11-06T02:42:13.622Z,5.30
2022-11-06T02:44:42.515Z,5.20
2022-11-06T02:47:13.311Z,5.20
2022-11-06T02:49:46.035Z,5.20
2022-11-06T02:52:21.423Z,5.30
2022-11-06T02:54:56.175Z,5.30
2022-11-06T02:57:29.783Z,5.30
2022-11-06T03:00:03.840Z,5.30
2022-11-06T03:02:37.192Z,5.30
2022-11-06T03:08:00.851Z,5.20
2022-11-06T03:10:35.084Z,5.20
2022-11-06T03:13:14.232Z,5.10
2022-11-06T03:15:49.099Z,5.20
2022-11-06T03:18:21.059Z,5.20
2022-11-06T03:20:58.204Z,5.20
2022-11-06T03:23:33.151Z,5.10
2022-11-06T03:26:08.645Z,5.20
2022-11-06T03:28:41.169Z,5.20
2022-11-06T03:31:14.086Z,5.20
2022-11-06T03:33:48.327Z,5.20
2022-11-06T03:36:21.043Z,5.20
2022-11-06T03:38:53.693Z,5.20
2022-11-06T03:41:27.094Z,5.10
2022-11-06T03:43:58.872Z,5.00
2022-11-06T03:46:27.937Z,5.00
2022-11-06T03:48:58.928Z,5.10
2022-11-06T03:51:31.166Z,5.00
2022-11-06T03:54:03.650Z,4.90
2022-11-06T03:56:36.873Z,4.90
2022-11-06T03:59:08.238Z,4.90
2022-11-06T04:01:38.951Z,4.90
2022-11-06T04:04:12.783Z,4.90
2022-11-06T04:06:45.232Z,4.90
2022-11-06T04:09:33.957Z,4.90
2022-11-06T04:12:22.749Z,4.90
2022-11-06T04:14:55.711Z,4.80
2022-11-06T04:17:27.373Z,4.80
2022-11-06T04:20:00.365Z,4.80
2022-11-06T04:22:45.780Z,4.80
2022-11-06T04:25:46.458Z,4.80
2022-11-06T04:28:27.241Z,4.70
2022-11-06T04:31:06.448Z,4.70
2022-11-06T04:33:44.366Z,4.80
2022-11-06T04:36:19.619Z,4.70
2022-11-06T04:38:55.861Z,4.60
2022-11-06T04:41:34.682Z,4.60
2022-11-06T04:44:06.662Z,4.60
2022-11-06T04:46:40.120Z,4.50
2022-11-06T04:49:09.590Z,4.50
2022-11-06T04:51:39.890Z,4.50
2022-11-06T04:54:10.235Z,4.50
2022-11-06T04:56:44.529Z,4.50
2022-11-06T04:59:16.526Z,4.50
2022-11-06T05:01:46.041Z,4.50
2022-11-06T05:04:14.108Z,4.50
2022-11-06T05:06:41.984Z,4.50
2022-11-06T05:09:09.852Z,4.60
2022-11-06T05:11:38.978Z,4.70
2022-11-06T05:14:06.976Z,4.80
2022-11-06T05:16:34.853Z,4.80
2022-11-06T05:19:04.648Z,4.80
2022-11-06T05:21:52.737Z,4.80
2022-11-06T05:24:20.616Z,4.80
2022-11-06T05:26:48.499Z,4.80
2022-11-06T05:29:16.608Z,4.70
2022-11-06T05:31:45.561Z,4.70
2022-11-06T05:34:15.182Z,4.70
2022-11-06T05:36:43.197Z,4.70
2022-11-06T05:39:11.205Z,4.60
2022-11-06T05:41:39.137Z,4.60
2022-11-06T05:44:07.219Z,4.50
2022-11-06T05:46:48.044Z,4.50
2022-11-06T05:49:18.770Z,4.50
2022-11-06T05:51:46.996Z,4.40
2022-11-06T05:54:15.482Z,4.50
2022-11-06T05:56:43.356Z,4.50
2022-11-06T05:59:11.398Z,4.50
2022-11-06T06:01:39.707Z,4.60
2022-11-06T06:04:07.642Z,4.60
2022-11-06T06:06:38.184Z,4.60
2022-11-06T06:09:07.054Z,4.60
2022-11-06T06:11:35.227Z,4.60
2022-11-06T06:14:04.342Z,4.60
2022-11-06T06:16:32.236Z,4.60
2022-11-06T06:19:00.104Z,4.70
2022-11-06T06:21:28.050Z,4.70
2022-11-06T06:23:57.607Z,4.60
2022-11-06T06:26:25.487Z,4.70
2022-11-06T06:28:53.351Z,4.70
2022-11-06T06:31:21.723Z,4.70
2022-11-06T06:33:49.892Z,4.70
2022-11-06T06:36:17.749Z,4.70
2022-11-06T06:38:45.596Z,4.70
2022-11-06T06:41:15.880Z,4.70
2022-11-06T06:43:44.868Z,4.70
2022-11-06T06:46:12.690Z,4.70
2022-11-06T06:48:40.543Z,4.70
2022-11-06T06:51:08.952Z,4.70
2022-11-06T06:53:37.397Z,4.70
2022-11-06T06:56:05.849Z,4.80
2022-11-06T06:58:35.535Z,4.80
2022-11-06T07:01:06.233Z,4.90
2022-11-06T07:03:34.168Z,4.90
2022-11-06T07:06:02.031Z,4.90
2022-11-06T07:08:30.067Z,5.00
2022-11-06T07:11:00.481Z,5.00
2022-11-06T07:13:32.779Z,5.00
2022-11-06T07:16:06.045Z,5.10
2022-11-06T07:18:34.005Z,5.30
2022-11-06T07:21:01.918Z,5.30
2022-11-06T07:23:29.781Z,5.40
2022-11-06T07:25:58.886Z,5.50
2022-11-06T07:28:26.815Z,5.70
2022-11-06T07:30:59.422Z,6.00
2022-11-06T07:33:28.716Z,6.00
2022-11-06T07:35:56.594Z,5.90
2022-11-06T07:38:24.500Z,5.80
2022-11-06T07:40:52.511Z,5.80
2022-11-06T07:43:20.330Z,5.80
2022-11-06T07:45:48.174Z,5.90
2022-11-06T07:48:16.441Z,5.90
2022-11-06T07:50:45.827Z,6.20
2022-11-06T07:53:13.909Z,6.50
2022-11-06T07:55:49.296Z,6.90
2022-11-06T07:58:17.909Z,7.20
2022-11-06T08:00:48.585Z,7.30
2022-11-06T08:03:17.063Z,7.30
2022-11-06T08:05:46.585Z,7.00
2022-11-06T08:08:15.160Z,6.90
2022-11-06T08:10:43.790Z,6.70
2022-11-06T08:13:12.241Z,6.60
2022-11-06T08:15:40.826Z,6.50
2022-11-06T08:18:09.863Z,6.50
2022-11-06T08:20:41.711Z,6.30
2022-11-06T08:23:13.728Z,6.20
2022-11-06T08:25:41.988Z,6.10
2022-11-06T08:28:11.100Z,6.10
2022-11-06T08:30:39.201Z,6.10
2022-11-06T08:33:09.598Z,6.20
2022-11-06T08:35:37.737Z,6.30
2022-11-06T08:38:06.950Z,6.60
2022-11-06T08:40:38.523Z,6.80
2022-11-06T08:43:08.283Z,7.10
2022-11-06T08:45:38.419Z,7.20
2022-11-06T08:48:06.959Z,7.40
2022-11-06T08:50:36.621Z,7.60
2022-11-06T08:53:06.371Z,7.90
2022-11-06T08:55:37.471Z,8.30
2022-11-06T08:58:06.031Z,8.70
2022-11-06T09:00:35.045Z,9.10
2022-11-06T09:03:05.664Z,9.20
2022-11-06T09:05:34.105Z,9.40
2022-11-06T09:08:02.312Z,9.50
2022-11-06T09:10:30.261Z,9.50
2022-11-06T09:13:01.009Z,9.30
2022-11-06T09:15:29.939Z,9.00
2022-11-06T09:17:58.180Z,8.90
2022-11-06T09:20:27.649Z,8.90
2022-11-06T09:22:56.060Z,8.90
2022-11-06T09:25:23.918Z,8.90
2022-11-06T09:27:58.889Z,8.90
2022-11-06T09:30:30.031Z,8.90
2022-11-06T09:33:01.616Z,9.00
2022-11-06T09:35:32.799Z,9.00
2022-11-06T09:38:05.001Z,9.10
2022-11-06T09:40:35.941Z,9.10
2022-11-06T09:43:16.012Z,9.00
2022-11-06T09:45:52.309Z,9.00
2022-11-06T09:48:26.859Z,9.00
2022-11-06T09:50:59.636Z,8.90
2022-11-06T09:53:32.691Z,8.80
2022-11-06T09:56:03.378Z,8.70
2022-11-06T09:58:36.742Z,8.60
2022-11-06T10:01:22.019Z,8.60
2022-11-06T10:03:56.750Z,8.60
2022-11-06T10:06:26.060Z,8.70
2022-11-06T10:08:58.394Z,8.80
2022-11-06T10:11:48.006Z,8.80
2022-11-06T10:14:28.576Z,8.80
2022-11-06T10:17:04.630Z,8.90
2022-11-06T10:19:39.633Z,8.90
2022-11-06T10:22:15.882Z,9.00
2022-11-06T10:24:47.667Z,9.20
2022-11-06T10:27:18.367Z,9.20
2022-11-06T10:30:00.045Z,9.20
2022-11-06T10:32:51.923Z,9.20
2022-11-06T10:35:23.211Z,9.30
2022-11-06T10:37:56.090Z,9.50
2022-11-06T10:40:28.037Z,9.70
2022-11-06T10:43:06.259Z,9.90
2022-11-06T10:45:35.102Z,10.00
2022-11-06T10:48:22.818Z,10.10
2022-11-06T10:51:06.368Z,10.10
2022-11-06T10:53:40.242Z,10.10
2022-11-06T10:56:26.037Z,10.10
2022-11-06T10:58:54.408Z,10.20
2022-11-06T11:01:22.485Z,10.30
2022-11-06T11:03:52.305Z,10.30
2022-11-06T11:06:22.965Z,10.30
2022-11-06T11:08:51.960Z,10.20
2022-11-06T11:11:27.180Z,10.30
2022-11-06T11:14:16.429Z,10.40
2022-11-06T11:16:46.567Z,10.50
2022-11-06T11:19:27.405Z,10.50
2022-11-06T11:21:57.683Z,10.50
2022-11-06T11:24:26.122Z,10.50
2022-11-06T11:26:58.476Z,10.50
2022-11-06T11:29:28.649Z,10.50
2022-11-06T11:31:59.773Z,10.50
2022-11-06T11:34:31.275Z,10.40
2022-11-06T11:37:02.800Z,10.40
2022-11-06T11:39:33.082Z,10.40
2022-11-06T11:42:24.398Z,10.40
2022-11-06T11:45:14.129Z,10.50
2022-11-06T11:47:43.517Z,10.50
2022-11-06T11:50:27.881Z,10.50
2022-11-06T11:52:59.781Z,10.40
2022-11-06T11:55:30.735Z,10.40
2022-11-06T11:58:01.860Z,10.40
2022-11-06T12:00:30.736Z,10.40
2022-11-06T12:03:02.542Z,10.30
2022-11-06T12:05:35.548Z,10.40
2022-11-06T12:08:04.833Z,10.40
2022-11-06T12:10:36.260Z,10.40
2022-11-06T12:13:06.698Z,10.40
2022-11-06T12:15:45.128Z,10.40
2022-11-06T12:18:16.575Z,10.40
2022-11-06T12:20:53.448Z,10.40
2022-11-06T12:23:26.874Z,10.40
2022-11-06T12:26:02.568Z,10.40
2022-11-06T12:28:32.141Z,10.40
2022-11-06T12:31:07.023Z,10.50
2022-11-06T12:34:07.148Z,10.50
2022-11-06T12:36:30.055Z,10.60
2022-11-06T12:39:03.050Z,10.70
2022-11-06T12:41:34.967Z,10.70
2022-11-06T12:44:04.069Z,10.60
2022-11-06T12:46:45.596Z,10.70
2022-11-06T12:49:30.681Z,10.70
2022-11-06T12:52:16.844Z,10.70
2022-11-06T12:55:04.169Z,10.60
2022-11-06T12:57:47.096Z,10.50
2022-11-06T13:00:18.989Z,10.50
2022-11-06T13:03:17.997Z,10.50
2022-11-06T13:05:55.602Z,10.50
2022-11-06T13:08:35.930Z,10.60
2022-11-06T13:11:17.258Z,10.60
2022-11-06T13:13:55.586Z,10.60
2022-11-06T13:16:32.298Z,10.50
2022-11-06T13:19:06.690Z,10.60
2022-11-06T13:21:56.943Z,10.70
2022-11-06T13:24:32.845Z,10.70
2022-11-06T13:27:09.448Z,10.70
2022-11-06T13:29:38.640Z,10.60
2022-11-06T13:32:13.372Z,10.60
2022-11-06T13:34:44.411Z,10.50
2022-11-06T13:37:16.753Z,10.50
2022-11-06T13:39:49.151Z,10.50
2022-11-06T13:42:24.654Z,10.50
2022-11-06T13:44:54.391Z,10.50
2022-11-06T13:47:29.692Z,10.40
2022-11-06T13:50:06.929Z,10.50
2022-11-06T13:52:42.723Z,10.50
2022-11-06T13:55:21.795Z,10.50
2022-11-06T13:58:05.164Z,10.50
2022-11-06T14:00:42.570Z,10.50
2022-11-06T14:03:49.044Z,10.40
2022-11-06T14:06:20.513Z,10.40
2022-11-06T14:08:51.949Z,10.30
2022-11-06T14:11:26.764Z,10.40
2022-11-06T14:14:00.359Z,10.40
2022-11-06T14:16:31.107Z,10.40
2022-11-06T14:19:05.232Z,10.40
2022-11-06T14:21:52.403Z,10.40
2022-11-06T14:24:32.926Z,10.30
2022-11-06T14:27:03.833Z,10.30
2022-11-06T14:30:02.995Z,10.40
2022-11-06T14:32:42.975Z,10.30
2022-11-06T14:35:49.162Z,10.30
2022-11-06T14:38:43.756Z,10.30
2022-11-06T14:41:49.113Z,10.40
2022-11-06T14:44:44.304Z,10.30
2022-11-06T14:47:29.148Z,10.30
2022-11-06T14:49:59.920Z,10.30
2022-11-06T14:52:28.611Z,10.30
2022-11-06T14:55:05.251Z,10.30
2022-11-06T14:57:45.734Z,10.20
2022-11-06T15:00:36.659Z,10.20
2022-11-06T15:03:07.727Z,10.10
2022-11-06T15:05:42.062Z,10.10
2022-11-06T15:08:11.795Z,10.00
2022-11-06T15:10:51.980Z,10.00
2022-11-06T15:13:29.920Z,10.00
2022-11-06T15:16:10.963Z,10.00
2022-11-06T15:18:46.565Z,9.90
2022-11-06T15:21:24.102Z,9.90
2022-11-06T15:24:02.944Z,9.90
2022-11-06T15:26:35.499Z,9.90
2022-11-06T15:29:17.215Z,9.80
2022-11-06T15:31:48.942Z,9.80
2022-11-06T15:34:24.263Z,9.80
2022-11-06T15:36:56.383Z,9.80
2022-11-06T15:39:32.652Z,9.70
2022-11-06T15:42:00.944Z,9.70
2022-11-06T15:44:28.895Z,9.70
2022-11-06T15:46:59.798Z,9.70
2022-11-06T15:49:27.887Z,9.70
2022-11-06T15:52:00.017Z,9.70
2022-11-06T15:54:36.505Z,9.70
2022-11-06T15:57:07.460Z,9.70
2022-11-06T15:59:35.590Z,9.60
2022-11-06T16:02:15.004Z,9.60
2022-11-06T16:04:43.911Z,9.50
2022-11-06T16:07:13.045Z,9.50
2022-11-06T16:09:43.727Z,9.50
2022-11-06T16:12:13.759Z,9.50
2022-11-06T16:14:44.240Z,9.50
2022-11-06T16:17:19.626Z,9.40
2022-11-06T16:19:49.992Z,9.30
2022-11-06T16:22:20.562Z,9.30
2022-11-06T16:24:52.786Z,9.30
2022-11-06T16:27:21.918Z,9.30
2022-11-06T16:29:53.370Z,9.40
2022-11-06T16:32:24.825Z,9.60
2022-11-06T16:34:55.155Z,9.60
2022-11-06T16:37:42.002Z,9.70
2022-11-06T16:40:47.087Z,9.70
2022-11-06T16:43:17.223Z,9.80
2022-11-06T16:46:06.819Z,9.70
2022-11-06T16:48:40.474Z,9.70
2022-11-06T16:51:14.551Z,9.70
2022-11-06T16:54:01.462Z,9.70
2022-11-06T16:56:31.675Z,9.70
2022-11-06T16:59:04.890Z,9.80
2022-11-06T17:01:41.131Z,9.80
2022-11-06T17:04:20.885Z,9.80
2022-11-06T17:06:49.240Z,9.80
2022-11-06T17:09:31.073Z,9.80
2022-11-06T17:12:00.330Z,9.70
2022-11-06T17:14:28.859Z,9.70
2022-11-06T17:16:58.661Z,9.60
2022-11-06T17:19:29.256Z,9.60
2022-11-06T17:21:57.881Z,9.50
2022-11-06T17:24:41.434Z,9.40
2022-11-06T17:27:09.901Z,9.40
2022-11-06T17:29:38.669Z,9.50
2022-11-06T17:32:06.622Z,9.50
2022-11-06T17:34:37.023Z,9.40
2022-11-06T17:37:05.405Z,9.40
2022-11-06T17:39:33.885Z,9.40
2022-11-06T17:42:01.715Z,9.40
2022-11-06T17:44:29.581Z,9.40
2022-11-06T17:46:57.440Z,9.40
2022-11-06T17:49:25.307Z,9.40
2022-11-06T17:51:58.818Z,9.50
2022-11-06T17:54:28.549Z,9.50
2022-11-06T17:56:57.368Z,9.40
2022-11-06T17:59:25.956Z,9.50
2022-11-06T18:01:54.871Z,9.50
2022-11-06T18:04:24.666Z,9.50
2022-11-06T18:06:54.952Z,9.50
2022-11-06T18:09:25.297Z,9.50
2022-11-06T18:11:54.536Z,9.60
2022-11-06T18:14:23.500Z,9.60
2022-11-06T18:16:52.149Z,9.60
2022-11-06T18:19:24.214Z,9.60
2022-11-06T18:21:52.654Z,9.60
2022-11-06T18:24:21.928Z,9.70
2022-11-06T18:26:49.822Z,9.70
2022-11-06T18:29:17.705Z,9.70
2022-11-06T18:31:45.758Z,9.70
2022-11-06T18:34:19.744Z,9.70
2022-11-06T18:36:48.876Z,9.70
2022-11-06T18:39:17.313Z,9.70
2022-11-06T18:41:46.576Z,9.70
2022-11-06T18:44:17.476Z,9.70
2022-11-06T18:46:45.647Z,9.60
2022-11-06T18:49:13.600Z,9.60
2022-11-06T18:51:41.774Z,9.60
2022-11-06T18:54:12.002Z,9.50
2022-11-06T18:56:40.282Z,9.50
2022-11-06T18:59:15.090Z,9.50
2022-11-06T19:01:43.046Z,9.50
2022-11-06T19:04:11.148Z,9.50
2022-11-06T19:06:41.293Z,9.50
2022-11-06T19:09:10.227Z,9.50
2022-11-06T19:11:38.112Z,9.40
2022-11-06T19:14:06.404Z,9.40
2022-11-06T19:16:36.082Z,9.40
2022-11-06T19:19:05.525Z,9.50
2022-11-06T19:21:34.304Z,9.50
2022-11-06T19:24:04.455Z,9.40
2022-11-06T19:26:33.763Z,9.50
2022-11-06T19:29:02.124Z,9.40
2022-11-06T19:31:30.667Z,9.40
2022-11-06T19:34:01.106Z,9.50
2022-11-06T19:36:29.436Z,9.50
2022-11-06T19:38:58.539Z,9.50
2022-11-06T19:41:27.221Z,9.50
2022-11-06T19:43:55.219Z,9.50
2022-11-06T19:46:28.210Z,9.50
2022-11-06T19:49:00.227Z,9.50
2022-11-06T19:51:28.280Z,9.50
2022-11-06T19:53:56.526Z,9.40
2022-11-06T19:56:25.544Z,9.40
2022-11-06T19:58:53.438Z,9.40
2022-11-06T20:01:22.283Z,9.40
2022-11-06T20:03:50.486Z,9.40
2022-11-06T20:06:20.090Z,9.40
2022-11-06T20:08:48.924Z,9.30
2022-11-06T20:11:17.469Z,9.30
2022-11-06T20:13:46.489Z,9.10
2022-11-06T20:16:16.635Z,9.10
2022-11-06T20:18:45.084Z,9.00
2022-11-06T20:21:13.653Z,8.90
2022-11-06T20:23:42.878Z,8.90
2022-11-06T20:26:11.235Z,8.90
2022-11-06T20:28:39.219Z,8.90
2022-11-06T20:31:08.420Z,8.90
2022-11-06T20:33:37.409Z,8.90
2022-11-06T20:36:12.860Z,8.80
2022-11-06T20:38:42.467Z,8.80
2022-11-06T20:41:10.471Z,8.70
2022-11-06T20:43:38.536Z,8.70
2022-11-06T20:46:06.667Z,8.70
2022-11-06T20:48:36.926Z,8.70
2022-11-06T20:51:07.507Z,8.70
2022-11-06T20:53:37.425Z,8.70
2022-11-06T20:56:09.683Z,8.70
2022-11-06T20:58:37.788Z,8.60
2022-11-06T21:01:07.219Z,8.60
2022-11-06T21:03:35.676Z,8.70
2022-11-06T21:06:03.925Z,8.70
2022-11-06T21:08:33.724Z,8.80
2022-11-06T21:11:06.363Z,8.80
2022-11-06T21:13:36.267Z,8.80
2022-11-06T21:16:06.582Z,8.70
2022-11-06T21:18:36.648Z,8.80
2022-11-06T21:21:06.112Z,8.80
2022-11-06T21:23:35.104Z,8.80
2022-11-06T21:26:06.620Z,8.70
2022-11-06T21:28:37.871Z,8.70
2022-11-06T21:31:05.988Z,8.80
2022-11-06T21:33:33.887Z,8.80
2022-11-06T21:36:13.418Z,8.80
2022-11-06T21:38:42.031Z,8.80
2022-11-06T21:41:13.147Z,8.70
2022-11-06T21:43:43.086Z,8.60
2022-11-06T21:46:12.366Z,8.60
2022-11-06T21:48:46.225Z,8.50
2022-11-06T21:51:16.927Z,8.50
2022-11-06T21:54:02.142Z,8.60
2022-11-06T21:56:30.059Z,8.60
2022-11-06T21:59:01.075Z,8.60
2022-11-06T22:01:29.939Z,8.50
2022-11-06T22:03:58.208Z,8.60
2022-11-06T22:06:28.082Z,8.70
2022-11-06T22:08:58.003Z,8.80
2022-11-06T22:11:28.087Z,8.90
2022-11-06T22:13:57.901Z,8.90
2022-11-06T22:16:29.364Z,9.00
2022-11-06T22:18:58.318Z,9.10
2022-11-06T22:21:27.828Z,9.20
2022-11-06T22:23:57.419Z,9.30
2022-11-06T22:26:27.682Z,9.40
2022-11-06T22:28:57.408Z,9.40
2022-11-06T22:31:27.074Z,9.40
2022-11-06T22:33:55.293Z,9.50
2022-11-06T22:36:24.169Z,9.50
2022-11-06T22:38:52.696Z,9.60
2022-11-06T22:41:22.268Z,9.60
2022-11-06T22:43:50.523Z,9.70
2022-11-06T22:46:22.193Z,9.70
2022-11-06T22:48:52.442Z,9.70
2022-11-06T22:51:22.888Z,9.80
2022-11-06T22:53:51.262Z,9.90
2022-11-06T22:56:19.960Z,10.00
2022-11-06T22:58:47.971Z,10.00
2022-11-06T23:01:15.941Z,9.90
2022-11-06T23:03:43.963Z,10.00
2022-11-06T23:06:14.296Z,10.00
2022-11-06T23:08:46.777Z,10.00
2022-11-06T23:11:17.888Z,10.00
2022-11-06T23:13:46.345Z,10.00
2022-11-06T23:16:16.537Z,10.00
2022-11-06T23:18:44.967Z,10.00
2022-11-06T23:21:16.383Z,10.00
2022-11-06T23:23:45.152Z,10.00
2022-11-06T23:26:14.340Z,10.10
2022-11-06T23:28:42.326Z,10.10
2022-11-06T23:31:11.416Z,10.10
2022-11-06T23:33:40.890Z,10.00
2022-11-06T23:36:09.865Z,10.00
2022-11-06T23:38:40.412Z,9.90
2022-11-06T23:41:23.555Z,10.00
2022-11-06T23:43:51.840Z,9.90
2022-11-06T23:46:19.373Z,10.00
2022-11-06T23:48:47.248Z,10.00
2022-11-06T23:51:15.315Z,10.00
2022-11-06T23:53:44.575Z,10.00
2022-11-06T23:56:13.464Z,10.00
2022-11-06T23:58:42.016Z,10.10
